Time;durP1;ratioP1;P1;durP2;ratioP2;P2;SDS_P1;SDS_P2;PMS_P1;PMS_P2;Temp;Humidity;BMP_temperature;BMP_pressure;BME280_temperature;BME280_humidity;BME280_pressure;Samples;Min_cycle;Max_cycle;Signal;HPM_P1;HPM_P2
2023/01/16 00:01:37;;;;;;;0.40;0.30;;;;;;;1.74;100.00;99063.94;5111623;28;20200;-59
2023/01/16 00:04:04;;;;;;;1.60;1.23;;;;;;;1.81;100.00;99062.03;5111472;28;20618;-61
2023/01/16 00:06:31;;;;;;;0.83;0.83;;;;;;;1.65;100.00;99065.97;5111504;28;20197;-60
2023/01/16 00:08:58;;;;;;;1.03;1.00;;;;;;;1.44;100.00;99058.31;5111682;28;20216;-61
2023/01/16 00:11:25;;;;;;;2.63;0.97;;;;;;;1.39;100.00;99075.28;5111611;28;20688;-61
2023/01/16 00:13:53;;;;;;;2.83;1.13;;;;;;;1.58;100.00;99071.22;5111004;28;20755;-61
2023/01/16 00:16:21;;;;;;;1.00;1.00;;;;;;;1.59;100.00;99072.88;5111074;28;20785;-59
2023/01/16 00:18:48;;;;;;;1.90;0.87;;;;;;;1.59;100.00;99062.78;5111425;28;20218;-59
2023/01/16 00:21:15;;;;;;;2.07;1.00;;;;;;;1.62;100.00;99066.09;5111224;28;20193;-61
2023/01/16 00:23:42;;;;;;;3.70;0.77;;;;;;;1.65;100.00;99060.94;5110991;28;20221;-61
2023/01/16 00:26:11;;;;;;;1.90;0.57;;;;;;;1.69;100.00;99065.00;5110755;28;20200;-59
2023/01/16 00:28:38;;;;;;;2.40;1.60;;;;;;;1.78;100.00;99057.09;5111031;28;20213;-59
2023/01/16 00:31:07;;;;;;;1.33;0.77;;;;;;;1.67;100.00;99059.19;5111151;28;20201;-59
2023/01/16 00:33:35;;;;;;;1.40;1.10;;;;;;;1.68;100.00;99050.72;5110960;28;20221;-60
2023/01/16 00:36:02;;;;;;;2.87;0.80;;;;;;;1.68;100.00;99048.22;5110540;28;20231;-59
2023/01/16 00:38:28;;;;;;;1.87;0.87;;;;;;;1.67;100.00;99049.09;5110182;28;20221;-59
2023/01/16 00:40:56;;;;;;;1.23;1.13;;;;;;;1.71;100.00;99050.63;5110934;28;20197;-60
2023/01/16 00:43:23;;;;;;;1.10;0.77;;;;;;;1.81;100.00;99051.94;5110976;28;20189;-60
2023/01/16 00:45:50;;;;;;;0.87;0.87;;;;;;;1.76;100.00;99051.28;5110893;28;20209;-61
2023/01/16 00:48:18;;;;;;;0.83;0.83;;;;;;;1.78;100.00;99052.06;5110627;28;20197;-61
2023/01/16 00:50:45;;;;;;;1.47;0.93;;;;;;;1.83;100.00;99054.38;5110534;28;20609;-61
2023/01/16 00:53:12;;;;;;;0.93;0.70;;;;;;;1.91;100.00;99048.19;5110464;28;20198;-59
2023/01/16 00:55:41;;;;;;;1.00;0.93;;;;;;;1.93;100.00;99048.13;5110369;28;20292;-59
2023/01/16 00:58:08;;;;;;;0.87;0.60;;;;;;;1.91;100.00;99053.22;5110341;28;20280;-60
2023/01/16 01:00:35;;;;;;;3.23;1.10;;;;;;;1.94;100.00;99043.03;5110685;28;20200;-61
2023/01/16 01:03:03;;;;;;;0.67;0.67;;;;;;;1.93;100.00;99051.47;5110306;28;20197;-61
2023/01/16 01:05:31;;;;;;;3.13;0.83;;;;;;;2.04;100.00;99044.34;5110440;28;20720;-61
2023/01/16 01:07:58;;;;;;;0.30;0.30;;;;;;;2.08;100.00;99045.03;5110287;28;20197;-61
2023/01/16 01:10:25;;;;;;;0.80;0.80;;;;;;;2.10;100.00;99037.41;5110137;27;20237;-61
2023/01/16 01:12:54;;;;;;;1.10;1.03;;;;;;;2.06;100.00;99038.41;5110273;28;20197;-61
2023/01/16 01:15:21;;;;;;;1.10;0.57;;;;;;;1.86;100.00;99037.44;5110281;28;20239;-61
2023/01/16 01:17:48;;;;;;;0.50;0.50;;;;;;;1.96;100.00;99036.22;5110003;28;20228;-61
2023/01/16 01:20:15;;;;;;;0.93;0.57;;;;;;;1.98;100.00;99029.44;5110400;28;20221;-61
2023/01/16 01:22:45;;;;;;;1.40;0.93;;;;;;;1.93;100.00;99031.31;5110432;28;20219;-59
2023/01/16 01:25:12;;;;;;;0.67;0.67;;;;;;;1.88;100.00;99028.13;5109965;28;20225;-60
2023/01/16 01:27:39;;;;;;;0.93;0.83;;;;;;;1.93;100.00;99022.94;5109883;28;20557;-61
2023/01/16 01:30:07;;;;;;;0.50;0.43;;;;;;;1.92;100.00;99019.59;5110363;28;20231;-59
2023/01/16 01:32:36;;;;;;;1.00;1.00;;;;;;;1.86;100.00;99017.28;5110232;28;20201;-59
2023/01/16 01:35:04;;;;;;;1.40;1.30;;;;;;;1.77;100.00;99015.09;5110036;28;20220;-59
2023/01/16 01:37:31;;;;;;;1.17;0.57;;;;;;;1.75;100.00;99016.88;5109588;28;20713;-59
2023/01/16 01:39:59;;;;;;;0.53;0.53;;;;;;;1.75;100.00;99010.13;5110357;28;20212;-59
2023/01/16 01:42:47;;;;;;;0.67;0.57;;;;;;;1.93;100.00;99013.66;5109882;28;20283;-59
2023/01/16 01:45:18;;;;;;;1.63;1.30;;;;;;;1.81;100.00;99011.63;5109768;28;20260;-61
2023/01/16 01:47:51;;;;;;;0.77;0.57;;;;;;;1.85;100.00;99008.09;5110065;28;20205;-61
2023/01/16 01:50:31;;;;;;;2.63;0.73;;;;;;;1.95;100.00;99004.34;5113959;28;20231;-61
2023/01/16 01:53:01;;;;;;;1.23;1.10;;;;;;;1.78;100.00;99012.53;5113973;28;20208;-61
2023/01/16 01:55:30;;;;;;;1.70;1.40;;;;;;;1.78;100.00;99011.72;5114235;28;20209;-59
2023/01/16 01:58:01;;;;;;;0.73;0.73;;;;;;;1.85;100.00;99002.22;5113951;28;20225;-59
2023/01/16 02:00:29;;;;;;;1.03;0.77;;;;;;;1.76;100.00;99003.41;5114049;28;20236;-59
2023/01/16 02:03:02;;;;;;;0.83;0.83;;;;;;;1.75;100.00;99001.75;5113821;28;20295;-59
2023/01/16 02:05:32;;;;;;;1.43;0.83;;;;;;;1.80;100.00;98999.88;5114300;28;20239;-61
2023/01/16 02:07:59;;;;;;;0.57;0.57;;;;;;;1.18;100.00;98996.25;5113398;28;20213;-61
2023/01/16 02:10:35;;;;;;;0.67;0.67;;;;;;;1.13;100.00;99004.00;5113758;28;20491;-61
2023/01/16 02:13:02;;;;;;;0.87;0.87;;;;;;;1.27;100.00;99000.16;5113672;28;20204;-59
2023/01/16 02:15:30;;;;;;;3.20;1.03;;;;;;;1.37;100.00;99001.47;5113544;28;20206;-59
2023/01/16 02:20:51;;;;;;;0.30;0.30;;;;;;;1.42;100.00;98994.56;5113712;28;20184;-59
2023/01/16 02:23:46;;;;;;;0.50;0.50;;;;;;;1.53;100.00;98984.09;5113150;28;20193;-59
2023/01/16 02:26:38;;;;;;;0.70;0.70;;;;;;;1.33;100.00;98984.81;5113376;28;20208;-59
2023/01/16 02:29:27;;;;;;;0.50;0.50;;;;;;;1.42;100.00;98984.47;5113206;28;20213;-59
2023/01/16 02:32:02;;;;;;;1.30;1.20;;;;;;;1.38;100.00;98977.91;5113294;28;20283;-59
2023/01/16 02:34:47;;;;;;;1.07;0.83;;;;;;;1.48;100.00;98984.25;5113631;28;20217;-59
2023/01/16 02:37:26;;;;;;;3.37;1.17;;;;;;;1.21;100.00;98977.72;5112828;28;20229;-59
2023/01/16 02:40:05;;;;;;;0.50;0.50;;;;;;;1.13;100.00;98968.75;5113180;28;20221;-59
2023/01/16 02:42:38;;;;;;;0.70;0.70;;;;;;;0.99;100.00;98968.41;5113096;28;20200;-59
2023/01/16 02:45:16;;;;;;;1.30;1.20;;;;;;;0.92;100.00;98961.94;5113213;28;20236;-60
2023/01/16 02:47:52;;;;;;;0.57;0.57;;;;;;;1.04;100.00;98964.00;5112907;28;20587;-61
2023/01/16 02:50:23;;;;;;;1.83;1.03;;;;;;;1.03;100.00;98959.88;5112921;28;20689;-61
2023/01/16 02:52:57;;;;;;;0.50;0.50;;;;;;;1.04;100.00;98953.94;5112524;28;20193;-60
2023/01/16 02:55:29;;;;;;;0.77;0.77;;;;;;;1.02;100.00;98955.72;5112988;28;20231;-61
2023/01/16 02:58:00;;;;;;;0.50;0.50;;;;;;;1.05;100.00;98950.56;5112938;28;20225;-60
2023/01/16 03:00:28;;;;;;;2.00;1.00;;;;;;;1.08;100.00;98950.47;5112189;28;20225;-59
2023/01/16 03:02:57;;;;;;;0.43;0.43;;;;;;;1.09;100.00;98947.06;5113134;28;20573;-61
2023/01/16 03:05:24;;;;;;;0.67;0.67;;;;;;;1.05;100.00;98940.50;5112613;28;20221;-61
2023/01/16 03:08:15;;;;;;;0.40;0.40;;;;;;;0.96;100.00;98933.28;5112589;28;20201;-61
2023/01/16 03:11:23;;;;;;;1.00;1.00;;;;;;;1.09;100.00;98928.63;5112852;28;20201;-61
2023/01/16 03:13:59;;;;;;;1.50;0.87;;;;;;;1.00;100.00;98917.19;5112545;28;20217;-61
2023/01/16 03:16:32;;;;;;;0.73;0.73;;;;;;;1.00;100.00;98912.13;5112675;28;20204;-60
2023/01/16 03:19:09;;;;;;;0.47;0.47;;;;;;;0.86;100.00;98919.34;5112984;28;20213;-61
2023/01/16 03:21:45;;;;;;;0.47;0.47;;;;;;;0.77;100.00;98909.63;5112308;28;20200;-61
2023/01/16 03:24:29;;;;;;;0.93;0.70;;;;;;;0.80;100.00;98904.47;5112390;28;20723;-61
2023/01/16 03:27:04;;;;;;;0.90;0.90;;;;;;;0.75;100.00;98901.31;5112531;28;20201;-61
2023/01/16 03:29:40;;;;;;;0.30;0.30;;;;;;;0.77;100.00;98902.06;5112269;28;20478;-59
2023/01/16 03:32:14;;;;;;;1.37;1.27;;;;;;;0.97;100.00;98903.88;5112038;28;20197;-59
2023/01/16 03:34:47;;;;;;;0.60;0.60;;;;;;;0.98;100.00;98893.75;5112086;28;20213;-61
2023/01/16 03:37:17;;;;;;;0.87;0.87;;;;;;;1.19;100.00;98896.34;5112157;28;20233;-61
2023/01/16 03:39:49;;;;;;;1.37;1.27;;;;;;;1.06;100.00;98901.84;5112482;28;20217;-61
2023/01/16 03:42:20;;;;;;;0.93;0.87;;;;;;;1.11;100.00;98894.94;5111763;28;20271;-61
2023/01/16 03:44:53;;;;;;;0.30;0.30;;;;;;;1.16;100.00;98896.47;5112028;28;20240;-59
2023/01/16 03:47:24;;;;;;;3.60;0.63;;;;;;;1.33;100.00;98896.66;5111939;28;20209;-59
2023/01/16 03:49:57;;;;;;;1.27;1.03;;;;;;;1.27;100.00;98897.72;5111556;28;20228;-59
2023/01/16 03:52:31;;;;;;;0.80;0.50;;;;;;;1.26;100.00;98892.75;5112135;28;20211;-59
2023/01/16 03:55:06;;;;;;;0.90;0.90;;;;;;;1.39;100.00;98893.91;5112136;28;20700;-61
2023/01/16 03:57:37;;;;;;;0.33;0.33;;;;;;;1.27;100.00;98889.34;5112187;28;20216;-61
2023/01/16 04:00:06;;;;;;;1.60;0.57;;;;;;;1.55;100.00;98876.53;5111470;28;20213;-61
2023/01/16 04:02:42;;;;;;;3.63;0.80;;;;;;;1.17;100.00;98872.94;5111588;28;20206;-61
2023/01/16 04:05:17;;;;;;;0.43;0.43;;;;;;;1.16;100.00;98871.28;5111563;28;20208;-61
2023/01/16 04:07:46;;;;;;;1.30;0.70;;;;;;;1.26;100.00;98875.13;5111399;28;20196;-61
2023/01/16 04:10:17;;;;;;;1.60;1.03;;;;;;;1.03;100.00;98869.22;5111229;28;20736;-61
2023/01/16 04:12:48;;;;;;;1.70;0.70;;;;;;;1.05;100.00;98864.97;5110570;28;20201;-59
2023/01/16 04:15:17;;;;;;;1.23;1.03;;;;;;;1.04;100.00;98870.06;5111202;28;20605;-59
2023/01/16 04:17:44;;;;;;;0.73;0.70;;;;;;;0.90;100.00;98860.47;5111030;28;20252;-61
2023/01/16 04:20:13;;;;;;;1.17;0.63;;;;;;;0.79;100.00;98852.53;5111011;28;20213;-61
2023/01/16 04:22:40;;;;;;;0.80;0.80;;;;;;;0.78;100.00;98861.75;5111213;28;20201;-59
2023/01/16 04:25:10;;;;;;;0.70;0.70;;;;;;;0.92;100.00;98853.69;5110923;28;20304;-59
2023/01/16 04:27:37;;;;;;;0.70;0.70;;;;;;;0.79;100.00;98853.34;5110947;28;20212;-59
2023/01/16 04:30:04;;;;;;;0.30;0.30;;;;;;;0.74;100.00;98847.66;5110870;28;20239;-59
2023/01/16 04:32:31;;;;;;;1.70;0.67;;;;;;;0.79;100.00;98842.47;5110947;28;20204;-61
2023/01/16 04:34:58;;;;;;;0.73;0.73;;;;;;;0.75;100.00;98834.19;5111042;28;20220;-59
2023/01/16 04:37:26;;;;;;;0.57;0.57;;;;;;;0.60;100.00;98835.56;5110897;28;20225;-59
2023/01/16 04:39:53;;;;;;;1.33;0.87;;;;;;;0.55;100.00;98824.81;5110662;28;20224;-60
2023/01/16 04:42:20;;;;;;;1.30;0.53;;;;;;;0.55;100.00;98827.34;5110585;28;20193;-61
2023/01/16 04:44:47;;;;;;;0.90;0.90;;;;;;;0.57;100.00;98823.09;5110845;28;20310;-61
2023/01/16 04:47:14;;;;;;;2.47;1.60;;;;;;;0.67;100.00;98821.91;5110605;28;20197;-59
2023/01/16 04:49:41;;;;;;;2.27;1.03;;;;;;;0.64;100.00;98823.69;5110498;28;20217;-59
2023/01/16 04:52:08;;;;;;;0.60;0.60;;;;;;;0.74;100.00;98831.72;5110510;28;20692;-59
2023/01/16 04:54:36;;;;;;;0.77;0.77;;;;;;;0.86;100.00;98818.69;5110517;28;20220;-59
2023/01/16 04:57:03;;;;;;;1.43;0.73;;;;;;;0.86;100.00;98823.72;5110498;28;20240;-60
2023/01/16 04:59:30;;;;;;;0.50;0.50;;;;;;;0.53;100.00;98825.78;5110272;28;20221;-59
2023/01/16 05:01:57;;;;;;;0.40;0.40;;;;;;;0.44;100.00;98830.25;5110645;28;20211;-59
2023/01/16 05:04:24;;;;;;;1.27;1.10;;;;;;;0.52;100.00;98824.94;5110452;28;20213;-61
2023/01/16 05:06:51;;;;;;;0.77;0.77;;;;;;;0.59;100.00;98823.84;5110357;28;20197;-61
2023/01/16 05:09:18;;;;;;;1.03;0.43;;;;;;;0.68;100.00;98815.16;5110493;28;20214;-59
2023/01/16 05:11:46;;;;;;;1.33;0.73;;;;;;;0.68;100.00;98815.97;5110225;28;20216;-59
2023/01/16 05:14:13;;;;;;;1.70;1.60;;;;;;;0.64;100.00;98816.97;5110450;28;20213;-61
2023/01/16 05:16:41;;;;;;;0.37;0.37;;;;;;;0.58;100.00;98814.69;5110367;28;20281;-61
2023/01/16 05:19:09;;;;;;;1.27;1.00;;;;;;;0.74;100.00;98814.94;5110002;28;20266;-61
2023/01/16 05:21:36;;;;;;;2.30;1.10;;;;;;;0.82;100.00;98817.19;5110054;28;20204;-59
2023/01/16 05:24:04;;;;;;;0.93;0.60;;;;;;;0.89;100.00;98814.38;5110096;28;20232;-61
2023/01/16 05:26:31;;;;;;;0.30;0.30;;;;;;;0.98;100.00;98817.41;5110353;28;20201;-61
2023/01/16 05:28:59;;;;;;;2.00;1.13;;;;;;;0.63;100.00;98817.84;5109886;28;20739;-61
2023/01/16 05:31:26;;;;;;;1.27;1.17;;;;;;;0.41;100.00;98812.75;5110249;28;20197;-59
2023/01/16 05:33:53;;;;;;;0.63;0.63;;;;;;;0.36;100.00;98818.81;5110083;28;20228;-59
2023/01/16 05:36:20;;;;;;;1.67;0.53;;;;;;;0.35;100.00;98812.97;5109965;28;20242;-61
2023/01/16 05:38:47;;;;;;;0.33;0.33;;;;;;;0.42;100.00;98806.84;5109628;28;20705;-61
2023/01/16 05:41:14;;;;;;;1.43;0.70;;;;;;;0.56;100.00;98801.34;5109908;28;20208;-61
2023/01/16 05:43:41;;;;;;;1.07;1.03;;;;;;;0.70;100.00;98805.03;5109727;28;20209;-59
2023/01/16 05:46:09;;;;;;;1.20;0.87;;;;;;;0.73;100.00;98802.41;5110259;28;20206;-61
2023/01/16 05:48:37;;;;;;;0.90;0.83;;;;;;;0.80;100.00;98798.78;5109937;28;20228;-61
2023/01/16 05:51:04;;;;;;;2.03;1.10;;;;;;;0.92;100.00;98797.50;5109994;28;20288;-58
2023/01/16 05:53:32;;;;;;;1.33;1.23;;;;;;;0.96;100.00;98794.84;5109548;28;20217;-62
2023/01/16 05:56:01;;;;;;;0.97;0.50;;;;;;;1.01;100.00;98785.38;5110119;28;20204;-62
2023/01/16 05:58:27;;;;;;;0.40;0.40;;;;;;;0.95;100.00;98782.28;5109859;28;20238;-59
2023/01/16 06:00:54;;;;;;;1.70;0.83;;;;;;;0.94;100.00;98773.94;5110059;28;20197;-59
2023/01/16 06:03:23;;;;;;;0.87;0.87;;;;;;;1.07;100.00;98780.13;5109760;28;20201;-59
2023/01/16 06:05:49;;;;;;;0.63;0.63;;;;;;;1.00;100.00;98770.38;5109833;28;20283;-60
2023/01/16 06:08:16;;;;;;;0.77;0.77;;;;;;;1.01;100.00;98767.78;5109399;28;20204;-59
2023/01/16 06:10:44;;;;;;;0.83;0.83;;;;;;;1.04;100.00;98762.63;5109617;28;20205;-59
2023/01/16 06:13:11;;;;;;;0.87;0.83;;;;;;;0.96;100.00;98754.56;5109294;28;20288;-59
2023/01/16 06:15:38;;;;;;;0.43;0.43;;;;;;;1.00;100.00;98751.03;5109798;28;20197;-59
2023/01/16 06:18:04;;;;;;;0.83;0.83;;;;;;;1.15;100.00;98753.84;5109313;28;20229;-59
2023/01/16 06:20:33;;;;;;;0.87;0.77;;;;;;;1.08;100.00;98756.59;5109973;28;20197;-59
2023/01/16 06:22:59;;;;;;;0.50;0.47;;;;;;;1.37;100.00;98739.53;5109561;28;20666;-59
2023/01/16 06:25:26;;;;;;;0.33;0.33;;;;;;;1.25;100.00;98750.06;5109634;28;20224;-59
2023/01/16 06:27:53;;;;;;;0.73;0.63;;;;;;;1.23;100.00;98744.28;5109269;28;20204;-59
2023/01/16 06:30:20;;;;;;;0.50;0.47;;;;;;;1.25;100.00;98750.06;5109367;28;20241;-59
2023/01/16 06:32:49;;;;;;;0.93;0.77;;;;;;;1.24;100.00;98739.19;5109276;28;20571;-61
2023/01/16 06:35:16;;;;;;;0.63;0.63;;;;;;;1.33;100.00;98730.44;5110524;28;20209;-59
2023/01/16 06:37:45;;;;;;;0.63;0.63;;;;;;;1.34;100.00;98734.63;5112925;28;20232;-59
2023/01/16 06:40:12;;;;;;;1.63;0.67;;;;;;;1.41;100.00;98730.94;5113090;28;20217;-59
2023/01/16 06:42:38;;;;;;;2.03;1.00;;;;;;;1.53;100.00;98727.94;5113266;28;20199;-62
2023/01/16 06:45:06;;;;;;;0.50;0.50;;;;;;;1.67;100.00;98734.09;5112944;28;20225;-61
2023/01/16 06:47:33;;;;;;;0.70;0.60;;;;;;;1.71;100.00;98728.03;5112899;28;20212;-61
2023/01/16 06:50:00;;;;;;;0.47;0.47;;;;;;;1.71;100.00;98733.09;5113205;28;20351;-61
2023/01/16 06:52:27;;;;;;;2.10;0.77;;;;;;;1.79;100.00;98726.03;5113405;28;20193;-62
2023/01/16 06:54:56;;;;;;;1.00;0.73;;;;;;;2.06;100.00;98729.06;5113109;28;20221;-59
2023/01/16 06:57:23;;;;;;;1.33;0.70;;;;;;;2.09;100.00;98735.69;5113090;28;20287;-61
2023/01/16 06:59:50;;;;;;;0.70;0.70;;;;;;;1.96;100.00;98742.97;5112684;28;20227;-62
2023/01/16 07:02:17;;;;;;;0.90;0.80;;;;;;;2.15;100.00;98743.81;5112842;28;20212;-62
2023/01/16 07:04:44;;;;;;;0.53;0.53;;;;;;;2.23;100.00;98740.94;5113072;28;20213;-63
2023/01/16 07:07:11;;;;;;;1.50;0.80;;;;;;;2.14;100.00;98733.78;5112553;28;20234;-59
2023/01/16 07:09:38;;;;;;;1.43;0.87;;;;;;;2.19;100.00;98741.97;5112489;28;20213;-60
2023/01/16 07:12:06;;;;;;;0.73;0.73;;;;;;;2.25;100.00;98729.09;5112498;28;20204;-63
2023/01/16 07:22:47;;;;;;;1.97;1.27;;;;;;;2.76;100.00;98755.38;5112336;28;20196;-62
2023/01/16 07:25:18;;;;;;;1.40;0.93;;;;;;;2.88;100.00;98759.88;5112076;28;20304;-62
2023/01/16 07:27:49;;;;;;;1.60;0.97;;;;;;;3.01;100.00;98775.28;5111927;28;20197;-62
2023/01/16 07:30:17;;;;;;;4.77;1.37;;;;;;;2.98;100.00;98774.59;5112301;28;20610;-63
2023/01/16 07:32:44;;;;;;;1.43;0.57;;;;;;;2.76;100.00;98770.53;5112263;28;20202;-61
2023/01/16 07:35:11;;;;;;;0.50;0.50;;;;;;;3.04;100.00;98761.69;5112317;28;20216;-63
2023/01/16 07:37:39;;;;;;;0.90;0.90;;;;;;;3.08;100.00;98766.50;5111850;28;20203;-63
2023/01/16 07:40:07;;;;;;;0.67;0.57;;;;;;;3.32;100.00;98759.50;5111921;28;20217;-63
2023/01/16 07:42:34;;;;;;;0.63;0.63;;;;;;;3.60;100.00;98758.97;5111883;28;20295;-63
2023/01/16 07:45:03;;;;;;;0.73;0.73;;;;;;;3.70;100.00;98754.31;5111612;28;20236;-59
2023/01/16 07:47:29;;;;;;;1.43;0.80;;;;;;;3.39;100.00;98760.84;5111936;28;20220;-59
2023/01/16 07:49:58;;;;;;;1.57;0.80;;;;;;;3.37;100.00;98757.59;5112330;28;20221;-59
2023/01/16 07:52:25;;;;;;;1.10;1.03;;;;;;;3.65;100.00;98753.69;5111988;28;20201;-59
2023/01/16 07:54:52;;;;;;;0.30;0.30;;;;;;;3.63;100.00;98752.94;5111942;28;20594;-59
2023/01/16 07:57:19;;;;;;;1.23;1.13;;;;;;;4.01;100.00;98762.88;5111823;28;20197;-59
2023/01/16 07:59:45;;;;;;;1.53;1.43;;;;;;;3.83;100.00;98764.59;5111603;28;20229;-62
2023/01/16 08:02:14;;;;;;;1.17;1.00;;;;;;;3.82;100.00;98753.69;5111728;28;20197;-63
2023/01/16 08:04:40;;;;;;;0.80;0.70;;;;;;;4.06;100.00;98754.16;5111112;28;20224;-63
2023/01/16 08:07:07;;;;;;;0.93;0.67;;;;;;;4.20;100.00;98747.56;5111770;28;20208;-59
2023/01/16 08:09:34;;;;;;;1.07;0.90;;;;;;;4.34;100.00;98755.28;5111743;28;20435;-63
2023/01/16 08:12:01;;;;;;;1.50;1.40;;;;;;;4.38;100.00;98746.63;5111478;28;20197;-62
2023/01/16 08:14:28;;;;;;;0.27;0.27;;;;;;;4.42;100.00;98753.16;5111247;28;20266;-64
2023/01/16 08:16:55;;;;;;;1.63;1.03;;;;;;;4.47;100.00;98758.78;5111295;28;20197;-63
2023/01/16 08:19:23;;;;;;;0.20;0.13;;;;;;;4.54;100.00;98752.50;5110817;28;20237;-63
2023/01/16 08:21:50;;;;;;;0.70;0.50;;;;;;;4.54;100.00;98746.63;5111257;28;20209;-63
2023/01/16 08:24:17;;;;;;;1.10;0.93;;;;;;;4.56;100.00;98744.81;5110812;28;20227;-63
2023/01/16 08:26:44;;;;;;;0.40;0.40;;;;;;;4.62;100.00;98741.97;5111435;28;20207;-63
2023/01/16 08:29:11;;;;;;;0.77;0.77;;;;;;;4.06;100.00;98736.44;5110759;28;20221;-63
2023/01/16 08:31:38;;;;;;;1.80;1.70;;;;;;;3.73;100.00;98728.06;5111079;28;20201;-63
2023/01/16 08:34:05;;;;;;;0.77;0.77;;;;;;;4.05;100.00;98734.00;5110557;28;20622;-59
2023/01/16 08:36:33;;;;;;;0.40;0.40;;;;;;;4.21;100.00;98744.13;5111012;28;20208;-63
2023/01/16 08:39:00;;;;;;;1.33;0.70;;;;;;;4.48;100.00;98747.78;5110258;28;20236;-62
2023/01/16 08:52:31;;;;;;;1.17;0.70;;;;;;;5.19;100.00;98742.22;5111051;28;20246;-59
2023/01/16 08:54:59;;;;;;;0.20;0.20;;;;;;;4.95;100.00;98728.41;5110567;28;20736;-62
2023/01/16 08:57:27;;;;;;;0.90;0.90;;;;;;;4.62;100.00;98724.22;5110647;28;20205;-59
2023/01/16 08:59:54;;;;;;;0.90;0.90;;;;;;;4.57;100.00;98726.22;5110181;28;20305;-63
2023/01/16 09:02:21;;;;;;;0.60;0.60;;;;;;;4.69;100.00;98707.84;5110651;28;20206;-62
2023/01/16 09:04:48;;;;;;;0.50;0.50;;;;;;;4.55;100.00;98710.28;5110639;28;20307;-62
2023/01/16 09:07:16;;;;;;;0.40;0.20;;;;;;;4.69;100.00;98707.03;5110546;28;20205;-59
2023/01/16 09:09:44;;;;;;;0.40;0.40;;;;;;;4.98;100.00;98707.97;5110728;28;20604;-59
2023/01/16 09:14:56;;;;;;;0.97;0.97;;;;;;;5.11;100.00;98701.28;5110725;28;20478;-60
2023/01/16 09:17:24;;;;;;;0.90;0.90;;;;;;;5.08;100.00;98696.38;5110528;28;20665;-63
2023/01/16 09:19:51;;;;;;;1.83;0.77;;;;;;;5.39;100.00;98704.81;5110212;28;20733;-63
2023/01/16 09:22:18;;;;;;;0.50;0.50;;;;;;;5.49;100.00;98705.91;5110353;28;20201;-59
2023/01/16 09:24:46;;;;;;;0.93;0.80;;;;;;;5.80;100.00;98699.06;5110383;28;20217;-62
2023/01/16 09:27:14;;;;;;;1.67;1.57;;;;;;;5.31;100.00;98681.63;5110409;28;20197;-62
2023/01/16 09:29:41;;;;;;;0.77;0.77;;;;;;;5.58;100.00;98680.00;5109854;28;20221;-59
2023/01/16 09:32:08;;;;;;;1.33;0.77;;;;;;;5.89;100.00;98684.09;5110185;28;20197;-63
2023/01/16 09:34:36;;;;;;;0.47;0.47;;;;;;;6.21;100.00;98691.53;5110425;28;20225;-60
2023/01/16 09:37:03;;;;;;;1.27;0.87;;;;;;;6.12;100.00;98694.63;5110328;28;20197;-63
2023/01/16 09:39:30;;;;;;;0.87;0.87;;;;;;;5.89;100.00;98681.56;5110173;28;20607;-59
2023/01/16 09:45:04;;;;;;;0.70;0.60;;;;;;;5.85;100.00;98671.69;5110244;28;20686;-63
2023/01/16 09:47:33;;;;;;;1.67;1.23;;;;;;;5.75;100.00;98661.25;5110109;28;20209;-59
2023/01/16 09:50:05;;;;;;;0.60;0.60;;;;;;;5.30;100.00;98654.66;5109906;28;20611;-59
2023/01/16 10:01:00;;;;;;;0.70;0.53;;;;;;;5.65;100.00;98638.19;5110032;28;20189;-59
2023/01/16 10:03:27;;;;;;;0.60;0.60;;;;;;;5.73;100.00;98636.91;5109756;28;20221;-63
2023/01/16 10:06:03;;;;;;;2.07;1.20;;;;;;;5.83;100.00;98632.91;5109995;28;20197;-59
2023/01/16 10:08:38;;;;;;;0.70;0.67;;;;;;;5.76;100.00;98631.63;5109725;28;20221;-60
2023/01/16 10:11:14;;;;;;;1.47;0.83;;;;;;;6.15;100.00;98622.56;5112552;28;20223;-62
2023/01/16 10:14:14;;;;;;;1.10;1.00;;;;;;;6.50;100.00;98623.72;5114100;28;20278;-63
2023/01/16 10:16:55;;;;;;;1.73;1.23;;;;;;;6.70;100.00;98621.66;5110718;27;20201;-62
2023/01/16 10:19:35;;;;;;;1.97;1.37;;;;;;;6.94;100.00;98622.59;5113952;28;20237;-63
2023/01/16 10:22:13;;;;;;;1.10;0.97;;;;;;;6.86;100.00;98614.66;5113832;28;20208;-63
2023/01/16 10:24:52;;;;;;;1.80;1.30;;;;;;;6.90;100.00;98611.03;5113473;28;20289;-63
2023/01/16 10:27:23;;;;;;;2.30;1.63;;;;;;;6.92;100.00;98599.03;5113605;28;20677;-60
2023/01/16 10:29:56;;;;;;;1.83;0.83;;;;;;;7.05;100.00;98603.31;5113078;28;20225;-60
2023/01/16 10:32:29;;;;;;;0.80;0.80;;;;;;;7.13;100.00;98593.47;5113861;28;20212;-60
2023/01/16 10:35:03;;;;;;;1.70;1.03;;;;;;;7.21;100.00;98593.75;5113193;28;20696;-60
2023/01/16 10:37:31;;;;;;;2.90;1.30;;;;;;;7.18;100.00;98594.75;5113666;28;20201;-60
2023/01/16 10:39:59;;;;;;;3.33;2.10;;;;;;;7.24;100.00;98593.53;5113218;28;20229;-59
2023/01/16 10:50:54;;;;;;;2.63;1.20;;;;;;;7.05;100.00;98571.09;5113539;28;20204;-60
2023/01/16 10:53:21;;;;;;;2.13;1.70;;;;;;;7.17;100.00;98572.00;5113051;28;20201;-59
2023/01/16 10:55:51;;;;;;;1.73;1.57;;;;;;;7.26;100.00;98579.81;5113084;28;20204;-60
2023/01/16 10:58:27;;;;;;;1.20;1.10;;;;;;;7.31;100.00;98582.06;5113429;28;20288;-60
2023/01/16 11:00:59;;;;;;;1.93;1.60;;;;;;;7.31;100.00;98584.59;5113130;28;20201;-63
2023/01/16 11:03:33;;;;;;;1.60;1.40;;;;;;;7.33;100.00;98580.25;5113060;28;20217;-60
2023/01/16 11:06:14;;;;;;;0.83;0.83;;;;;;;7.05;100.00;98562.66;5113211;28;20200;-63
2023/01/16 11:08:43;;;;;;;2.00;1.27;;;;;;;7.12;100.00;98556.22;5112520;28;20712;-60
2023/01/16 11:19:26;;;;;;;2.17;1.03;;;;;;;7.34;100.00;98569.13;5112251;28;20231;-60
2023/01/16 11:21:55;;;;;;;1.67;1.07;;;;;;;7.40;100.00;98563.63;5112493;28;20208;-60
2023/01/16 11:24:24;;;;;;;1.30;1.20;;;;;;;7.08;100.00;98563.25;5112329;28;20225;-59
2023/01/16 11:26:54;;;;;;;2.63;1.70;;;;;;;7.15;100.00;98558.56;5112735;28;20200;-59
2023/01/16 11:29:23;;;;;;;3.37;1.57;;;;;;;7.26;100.00;98558.66;5112331;28;20228;-63
2023/01/16 11:31:56;;;;;;;1.37;1.20;;;;;;;7.23;94.82;98561.41;5112944;28;20565;-63
2023/01/16 11:34:26;;;;;;;3.00;1.63;;;;;;;6.80;100.00;98546.44;5112301;28;20224;-59
2023/01/16 11:36:54;;;;;;;3.20;1.13;;;;;;;6.92;100.00;98538.06;5112559;28;20703;-59
2023/01/16 11:39:24;;;;;;;1.43;1.20;;;;;;;7.19;100.00;98539.66;5111811;28;20236;-59
2023/01/16 11:41:52;;;;;;;2.53;1.20;;;;;;;7.17;100.00;98536.41;5112923;28;20208;-63
2023/01/16 11:47:11;;;;;;;0.90;0.90;;;;;;;6.94;100.00;98526.03;5112630;28;20562;-63
2023/01/16 11:49:40;;;;;;;1.50;1.30;;;;;;;7.10;97.25;98530.09;5112198;28;20217;-60
2023/01/16 11:52:26;;;;;;;1.67;1.50;;;;;;;7.14;97.95;98519.63;5112209;28;20205;-59
2023/01/16 11:54:54;;;;;;;0.97;0.70;;;;;;;6.92;100.00;98515.19;5111695;28;20709;-60
2023/01/16 11:57:40;;;;;;;1.23;1.03;;;;;;;6.90;100.00;98504.28;5112007;28;20289;-60
2023/01/16 12:00:26;;;;;;;0.63;0.63;;;;;;;6.83;99.04;98502.25;5111555;28;20232;-63
2023/01/16 12:03:14;;;;;;;1.43;0.67;;;;;;;6.89;100.00;98504.38;5111918;28;20201;-60
2023/01/16 12:05:57;;;;;;;0.70;0.60;;;;;;;7.01;99.15;98495.94;5094972;28;20620;-60
2023/01/16 12:08:55;;;;;;;1.23;0.80;;;;;;;6.99;98.91;98493.50;5111836;28;20225;-62
2023/01/16 12:11:32;;;;;;;1.30;1.13;;;;;;;7.06;100.00;98483.72;5111768;28;20248;-60
2023/01/16 12:14:18;;;;;;;3.17;1.47;;;;;;;7.05;100.00;98471.16;5111897;28;20220;-63
2023/01/16 12:17:14;;;;;;;6.10;1.67;;;;;;;6.94;100.00;98454.88;5111922;28;20201;-60
2023/01/16 12:20:06;;;;;;;2.60;1.87;;;;;;;6.90;100.00;98456.00;5111499;28;20677;-63
2023/01/16 12:22:50;;;;;;;1.50;1.20;;;;;;;6.68;100.00;98438.84;5111533;28;20296;-62
2023/01/16 12:25:25;;;;;;;1.93;1.60;;;;;;;6.76;100.00;98443.41;5111115;28;20209;-63
2023/01/16 12:28:02;;;;;;;1.97;1.50;;;;;;;6.43;100.00;98444.75;5111309;28;20669;-60
2023/01/16 12:30:47;;;;;;;3.30;1.37;;;;;;;6.56;100.00;98434.59;5111251;28;20204;-59
2023/01/16 12:33:22;;;;;;;2.93;1.67;;;;;;;6.62;100.00;98438.44;5110545;28;20197;-60
2023/01/16 12:35:59;;;;;;;2.73;1.97;;;;;;;6.58;100.00;98428.50;5111345;28;20315;-63
2023/01/16 12:38:29;;;;;;;3.23;2.13;;;;;;;6.58;100.00;98418.34;5111135;28;20252;-59
2023/01/16 12:44:41;;;;;;;2.67;2.03;;;;;;;6.65;100.00;98417.91;5110786;28;20220;-60
2023/01/16 12:47:33;;;;;;;2.07;1.63;;;;;;;6.48;100.00;98412.22;5110981;28;20204;-59
2023/01/16 12:50:10;;;;;;;2.03;1.90;;;;;;;6.46;100.00;98414.06;5107658;28;20228;-60